createdAt,value
2023-02-11T00:00:37.921Z,0.00
2023-02-11T00:01:38.049Z,1.00
2023-02-11T00:02:38.437Z,0.00
2023-02-11T00:03:38.893Z,0.00
2023-02-11T00:04:39.019Z,1.00
2023-02-11T00:05:39.503Z,0.00
2023-02-11T00:06:39.703Z,0.00
2023-02-11T00:07:39.976Z,0.00
2023-02-11T00:08:40.194Z,0.00
2023-02-11T00:09:40.398Z,0.00
2023-02-11T00:10:40.773Z,0.00
2023-02-11T00:11:41.015Z,0.00
2023-02-11T00:12:41.306Z,0.00
2023-02-11T00:13:41.506Z,0.00
2023-02-11T00:14:41.907Z,0.00
2023-02-11T00:15:42.128Z,0.00
2023-02-11T00:16:42.452Z,0.00
2023-02-11T00:17:42.695Z,0.00
2023-02-11T00:18:42.971Z,0.00
2023-02-11T00:19:43.094Z,1.00
2023-02-11T00:20:43.455Z,0.00
2023-02-11T00:21:43.818Z,0.00
2023-02-11T00:22:44.058Z,0.00
2023-02-11T00:23:44.438Z,0.00
2023-02-11T00:24:44.638Z,0.00
2023-02-11T00:25:44.964Z,0.00
2023-02-11T00:26:45.290Z,0.00
2023-02-11T00:27:45.592Z,0.00
2023-02-11T00:28:45.848Z,0.00
2023-02-11T00:29:46.279Z,0.00
2023-02-11T00:30:46.595Z,0.00
2023-02-11T00:31:46.850Z,0.00
2023-02-11T00:32:47.002Z,0.00
2023-02-11T00:33:47.224Z,0.00
2023-02-11T00:34:47.551Z,0.00
2023-02-11T00:35:48.080Z,0.00
2023-02-11T00:36:48.254Z,0.00
2023-02-11T00:37:48.470Z,0.00
2023-02-11T00:38:48.734Z,0.00
2023-02-11T00:39:49.078Z,0.00
2023-02-11T00:40:49.493Z,0.00
2023-02-11T00:41:49.651Z,0.00
2023-02-11T00:42:49.976Z,0.00
2023-02-11T00:43:50.282Z,1.00
2023-02-11T00:44:50.592Z,0.00
2023-02-11T00:45:51.225Z,0.00
2023-02-11T00:46:51.259Z,0.00
2023-02-11T00:47:51.441Z,0.00
2023-02-11T00:48:51.877Z,0.00
2023-02-11T00:49:52.064Z,0.00
2023-02-11T00:50:52.417Z,0.00
2023-02-11T00:51:52.755Z,0.00
2023-02-11T00:52:53.017Z,0.00
2023-02-11T00:53:53.333Z,0.00
2023-02-11T00:54:53.712Z,0.00
2023-02-11T00:55:53.927Z,0.00
2023-02-11T00:56:54.252Z,0.00
2023-02-11T00:57:54.555Z,0.00
2023-02-11T00:58:54.901Z,0.00
2023-02-11T00:59:55.217Z,0.00
2023-02-11T01:00:55.539Z,0.00
2023-02-11T01:01:55.828Z,0.00
2023-02-11T01:02:56.191Z,0.00
2023-02-11T01:03:56.522Z,0.00
2023-02-11T01:04:56.827Z,0.00
2023-02-11T01:05:57.002Z,0.00
2023-02-11T01:06:57.358Z,0.00
2023-02-11T01:07:58.047Z,0.00
2023-02-11T01:08:57.935Z,0.00
2023-02-11T01:09:58.259Z,0.00
2023-02-11T01:10:58.601Z,0.00
2023-02-11T01:11:58.804Z,0.00
2023-02-11T01:12:59.169Z,0.00
2023-02-11T01:13:59.414Z,0.00
2023-02-11T01:14:59.806Z,0.00
2023-02-11T01:16:00.053Z,0.00
2023-02-11T01:17:00.345Z,0.00
2023-02-11T01:18:00.601Z,0.00
2023-02-11T01:19:00.923Z,0.00
2023-02-11T01:20:01.218Z,0.00
2023-02-11T01:21:01.608Z,0.00
2023-02-11T01:22:01.821Z,1.00
2023-02-11T01:23:02.197Z,0.00
2023-02-11T01:24:02.574Z,0.00
2023-02-11T01:25:02.788Z,0.00
2023-02-11T01:26:03.203Z,0.00
2023-02-11T01:27:03.474Z,0.00
2023-02-11T01:28:03.771Z,0.00
2023-02-11T01:29:03.980Z,0.00
2023-02-11T01:30:04.282Z,0.00
2023-02-11T01:31:04.701Z,0.00
2023-02-11T01:32:04.894Z,0.00
2023-02-11T01:33:05.181Z,0.00
2023-02-11T01:34:05.373Z,0.00
2023-02-11T01:35:05.685Z,0.00
2023-02-11T01:36:06.000Z,0.00
2023-02-11T01:37:06.365Z,0.00
2023-02-11T01:38:06.590Z,0.00
2023-02-11T01:39:06.814Z,0.00
2023-02-11T01:40:07.037Z,0.00
2023-02-11T01:41:07.396Z,0.00
2023-02-11T01:42:07.750Z,0.00
2023-02-11T01:43:08.060Z,0.00
2023-02-11T01:44:08.334Z,0.00
2023-02-11T01:45:08.586Z,0.00
2023-02-11T01:46:08.789Z,0.00
2023-02-11T01:47:09.098Z,0.00
2023-02-11T01:48:09.405Z,0.00
2023-02-11T01:49:09.759Z,0.00
2023-02-11T01:50:09.966Z,0.00
2023-02-11T01:51:10.288Z,0.00
2023-02-11T01:52:10.596Z,0.00
2023-02-11T01:53:10.946Z,0.00
2023-02-11T01:54:11.358Z,0.00
2023-02-11T01:55:11.579Z,0.00
2023-02-11T01:56:11.766Z,0.00
2023-02-11T01:57:12.049Z,0.00
2023-02-11T01:58:12.341Z,0.00
2023-02-11T01:59:12.719Z,0.00
2023-02-11T02:00:13.096Z,0.00
2023-02-11T02:01:13.830Z,0.00
2023-02-11T02:02:13.824Z,0.00
2023-02-11T02:03:13.918Z,0.00
2023-02-11T02:04:14.097Z,0.00
2023-02-11T02:05:14.469Z,0.00
2023-02-11T02:06:14.776Z,0.00
2023-02-11T02:07:15.143Z,0.00
2023-02-11T02:08:15.313Z,1.00
2023-02-11T02:09:15.695Z,0.00
2023-02-11T02:10:16.015Z,0.00
2023-02-11T02:11:16.406Z,0.00
2023-02-11T02:12:16.599Z,0.00
2023-02-11T02:13:16.924Z,0.00
2023-02-11T02:14:17.254Z,0.00
2023-02-11T02:15:17.500Z,0.00
2023-02-11T02:16:17.817Z,0.00
2023-02-11T02:17:18.072Z,0.00
2023-02-11T02:18:18.402Z,0.00
2023-02-11T02:19:18.626Z,0.00
2023-02-11T02:20:18.799Z,0.00
2023-02-11T02:21:19.157Z,0.00
2023-02-11T02:22:19.512Z,0.00
2023-02-11T02:23:19.726Z,0.00
2023-02-11T02:24:20.035Z,0.00
2023-02-11T02:25:20.444Z,0.00
2023-02-11T02:26:20.691Z,0.00
2023-02-11T02:27:21.058Z,0.00
2023-02-11T02:28:21.447Z,0.00
2023-02-11T02:29:21.654Z,0.00
2023-02-11T02:30:21.985Z,0.00
2023-02-11T02:31:22.359Z,0.00
2023-02-11T02:32:22.593Z,0.00
2023-02-11T02:33:23.295Z,0.00
2023-02-11T02:34:23.212Z,0.00
2023-02-11T02:35:23.544Z,0.00
2023-02-11T02:36:23.721Z,0.00
2023-02-11T02:37:24.081Z,0.00
2023-02-11T02:38:24.290Z,0.00
2023-02-11T02:39:24.588Z,0.00
2023-02-11T02:40:24.842Z,0.00
2023-02-11T02:41:25.064Z,0.00
2023-02-11T02:42:25.363Z,0.00
2023-02-11T02:43:25.755Z,0.00
2023-02-11T02:44:26.002Z,0.00
2023-02-11T02:45:26.387Z,0.00
2023-02-11T02:46:26.702Z,0.00
2023-02-11T02:47:26.893Z,0.00
2023-02-11T02:48:27.243Z,0.00
2023-02-11T02:49:27.525Z,0.00
2023-02-11T02:50:27.798Z,0.00
2023-02-11T02:51:28.094Z,0.00
2023-02-11T02:52:28.475Z,0.00
2023-02-11T02:53:28.660Z,0.00
2023-02-11T02:54:28.939Z,0.00
2023-02-11T02:55:29.275Z,0.00
2023-02-11T02:56:29.483Z,0.00
2023-02-11T02:57:29.839Z,0.00
2023-02-11T02:58:30.198Z,0.00
2023-02-11T02:59:30.398Z,0.00
2023-02-11T03:00:30.739Z,0.00
2023-02-11T03:01:31.463Z,0.00
2023-02-11T03:02:31.382Z,0.00
2023-02-11T03:03:31.760Z,0.00
2023-02-11T03:04:31.986Z,0.00
2023-02-11T03:05:32.296Z,0.00
2023-02-11T03:06:32.633Z,0.00
2023-02-11T03:07:32.941Z,0.00
2023-02-11T03:08:33.255Z,0.00
2023-02-11T03:09:33.617Z,0.00
2023-02-11T03:10:33.956Z,0.00
2023-02-11T03:11:34.149Z,0.00
2023-02-11T03:12:34.359Z,1.00
2023-02-11T03:13:34.721Z,0.00
2023-02-11T03:14:35.031Z,0.00
2023-02-11T03:15:35.748Z,0.00
2023-02-11T03:16:35.683Z,0.00
2023-02-11T03:17:36.011Z,0.00
2023-02-11T03:18:36.337Z,0.00
2023-02-11T03:19:36.664Z,0.00
2023-02-11T03:20:37.052Z,0.00
2023-02-11T03:21:37.238Z,0.00
2023-02-11T03:22:37.594Z,0.00
2023-02-11T03:23:37.917Z,0.00
2023-02-11T03:24:38.129Z,1.00
2023-02-11T03:25:38.513Z,0.00
2023-02-11T03:26:38.718Z,0.00
2023-02-11T03:27:39.115Z,0.00
2023-02-11T03:28:39.323Z,0.00
2023-02-11T03:29:39.538Z,0.00
2023-02-11T03:30:39.868Z,0.00
2023-02-11T03:31:40.344Z,0.00
2023-02-11T03:32:40.393Z,0.00
2023-02-11T03:33:40.765Z,0.00
2023-02-11T03:34:41.073Z,0.00
2023-02-11T03:35:41.442Z,0.00
2023-02-11T03:36:41.791Z,0.00
2023-02-11T03:37:42.000Z,0.00
2023-02-11T03:38:42.329Z,0.00
2023-02-11T03:39:42.647Z,0.00
2023-02-11T03:40:42.972Z,0.00
2023-02-11T03:41:43.318Z,0.00
2023-02-11T03:42:43.533Z,0.00
2023-02-11T03:43:43.916Z,0.00
2023-02-11T03:44:44.114Z,0.00
2023-02-11T03:45:44.523Z,0.00
2023-02-11T03:46:44.687Z,0.00
2023-02-11T03:47:45.042Z,0.00
2023-02-11T03:48:45.405Z,0.00
2023-02-11T03:49:45.702Z,0.00
2023-02-11T03:50:46.035Z,0.00
2023-02-11T03:51:46.461Z,0.00
2023-02-11T03:52:46.689Z,0.00
2023-02-11T03:53:47.027Z,0.00
2023-02-11T03:54:47.254Z,0.00
2023-02-11T03:55:47.967Z,0.00
2023-02-11T03:56:47.886Z,0.00
2023-02-11T03:57:48.196Z,0.00
2023-02-11T03:58:48.485Z,0.00
2023-02-11T03:59:48.850Z,0.00
2023-02-11T04:00:49.061Z,0.00
2023-02-11T04:01:49.456Z,0.00
2023-02-11T04:02:49.680Z,0.00
2023-02-11T04:03:49.874Z,0.00
2023-02-11T04:04:50.228Z,0.00
2023-02-11T04:05:50.881Z,0.00
2023-02-11T04:06:50.856Z,0.00
2023-02-11T04:07:51.236Z,0.00
2023-02-11T04:08:51.453Z,0.00
2023-02-11T04:09:51.698Z,0.00
2023-02-11T04:10:52.002Z,0.00
2023-02-11T04:11:52.332Z,0.00
2023-02-11T04:12:52.545Z,0.00
2023-02-11T04:13:52.833Z,0.00
2023-02-11T04:14:53.115Z,0.00
2023-02-11T04:15:53.915Z,0.00
2023-02-11T04:16:54.202Z,0.00
2023-02-11T04:17:54.050Z,0.00
2023-02-11T04:18:54.276Z,0.00
2023-02-11T04:19:54.592Z,0.00
2023-02-11T04:20:54.934Z,0.00
2023-02-11T04:21:55.222Z,0.00
2023-02-11T04:22:55.414Z,0.00
2023-02-11T04:23:55.769Z,0.00
2023-02-11T04:24:55.964Z,0.00
2023-02-11T04:25:56.332Z,0.00
2023-02-11T04:26:56.637Z,0.00
2023-02-11T04:27:57.119Z,0.00
2023-02-11T04:28:57.236Z,0.00
2023-02-11T04:29:57.566Z,0.00
2023-02-11T04:30:58.915Z,0.00
2023-02-11T04:31:58.179Z,0.00
2023-02-11T04:32:58.368Z,0.00
2023-02-11T04:33:58.718Z,0.00
2023-02-11T04:34:58.927Z,0.00
2023-02-11T04:35:59.244Z,0.00
2023-02-11T04:36:59.556Z,0.00
2023-02-11T04:37:59.944Z,0.00
2023-02-11T04:39:00.138Z,0.00
2023-02-11T04:40:00.463Z,0.00
2023-02-11T04:41:00.697Z,0.00
2023-02-11T04:42:01.003Z,0.00
2023-02-11T04:43:01.713Z,0.00
2023-02-11T04:44:01.622Z,0.00
2023-02-11T04:45:01.933Z,0.00
2023-02-11T04:46:02.162Z,0.00
2023-02-11T04:47:02.436Z,0.00
2023-02-11T04:48:02.838Z,0.00
2023-02-11T04:49:03.005Z,0.00
2023-02-11T04:50:03.352Z,0.00
2023-02-11T04:51:03.564Z,0.00
2023-02-11T04:52:03.878Z,0.00
2023-02-11T04:53:04.175Z,0.00
2023-02-11T04:54:04.544Z,0.00
2023-02-11T04:55:04.850Z,0.00
2023-02-11T04:56:05.258Z,0.00
2023-02-11T04:57:05.459Z,0.00
2023-02-11T04:58:05.742Z,0.00
2023-02-11T04:59:06.063Z,0.00
2023-02-11T05:00:06.348Z,0.00
2023-02-11T05:01:06.566Z,0.00
2023-02-11T05:02:06.861Z,0.00
2023-02-11T05:03:07.174Z,0.00
2023-02-11T05:04:07.528Z,0.00
2023-02-11T05:05:07.718Z,0.00
2023-02-11T05:06:08.075Z,0.00
2023-02-11T05:07:08.360Z,0.00
2023-02-11T05:08:08.653Z,0.00
2023-02-11T05:09:09.016Z,0.00
2023-02-11T05:10:09.294Z,0.00
2023-02-11T05:11:09.625Z,0.00
2023-02-11T05:12:09.850Z,0.00
2023-02-11T05:13:10.030Z,0.00
2023-02-11T05:14:10.405Z,0.00
2023-02-11T05:15:10.570Z,0.00
2023-02-11T05:16:10.976Z,0.00
2023-02-11T05:17:11.178Z,0.00
2023-02-11T05:18:11.538Z,0.00
2023-02-11T05:19:11.753Z,0.00
2023-02-11T05:20:12.083Z,0.00
2023-02-11T05:21:12.385Z,0.00
2023-02-11T05:22:12.713Z,0.00
2023-02-11T05:23:13.018Z,0.00
2023-02-11T05:24:13.339Z,0.00
2023-02-11T05:25:13.698Z,0.00
2023-02-11T05:26:13.891Z,0.00
2023-02-11T05:27:14.252Z,0.00
2023-02-11T05:28:14.612Z,0.00
2023-02-11T05:29:14.679Z,1.00
2023-02-11T05:30:15.116Z,0.00
2023-02-11T05:31:15.368Z,0.00
2023-02-11T05:32:15.623Z,0.00
2023-02-11T05:33:15.798Z,0.00
2023-02-11T05:34:16.220Z,0.00
2023-02-11T05:35:16.413Z,0.00
2023-02-11T05:36:16.733Z,0.00
2023-02-11T05:37:17.107Z,0.00
2023-02-11T05:38:17.356Z,0.00
2023-02-11T05:39:17.544Z,0.00
2023-02-11T05:40:17.896Z,0.00
2023-02-11T05:41:18.159Z,1.00
2023-02-11T05:42:18.365Z,1.00
2023-02-11T05:43:18.677Z,1.00
2023-02-11T05:44:19.044Z,0.00
2023-02-11T05:45:19.788Z,0.00
2023-02-11T05:46:19.691Z,0.00
2023-02-11T05:47:19.876Z,0.00
2023-02-11T05:48:20.226Z,0.00
2023-02-11T05:49:20.396Z,0.00
2023-02-11T05:50:20.780Z,0.00
2023-02-11T05:51:21.120Z,0.00
2023-02-11T05:52:21.426Z,0.00
2023-02-11T05:53:21.710Z,0.00
2023-02-11T05:54:22.082Z,0.00
2023-02-11T05:55:22.393Z,0.00
2023-02-11T05:56:22.713Z,0.00
2023-02-11T05:57:23.030Z,0.00
2023-02-11T05:58:23.356Z,0.00
2023-02-11T05:59:23.674Z,0.00
2023-02-11T06:00:24.014Z,0.00
2023-02-11T06:01:24.564Z,0.00
2023-02-11T06:02:24.706Z,0.00
2023-02-11T06:03:24.906Z,0.00
2023-02-11T06:04:25.149Z,1.00
2023-02-11T06:05:25.480Z,0.00
2023-02-11T06:06:25.839Z,0.00
2023-02-11T06:07:26.108Z,0.00
2023-02-11T06:08:26.427Z,0.00
2023-02-11T06:09:26.599Z,1.00
2023-02-11T06:10:26.934Z,1.00
2023-02-11T06:11:27.184Z,1.00
2023-02-11T06:12:27.496Z,1.00
2023-02-11T06:13:27.697Z,1.00
2023-02-11T06:14:28.000Z,1.00
2023-02-11T06:15:28.237Z,1.00
2023-02-11T06:16:28.746Z,1.00
2023-02-11T06:17:28.810Z,1.00
2023-02-11T06:18:29.039Z,2.00
2023-02-11T06:19:29.383Z,0.00
2023-02-11T06:20:29.552Z,2.00
2023-02-11T06:21:42.832Z,2.00
2023-02-11T06:22:31.097Z,1.00
2023-02-11T06:23:30.666Z,3.00
2023-02-11T06:24:54.690Z,2.00
2023-02-11T06:25:31.846Z,1.00
2023-02-11T06:26:31.153Z,3.00
2023-02-11T06:27:31.398Z,6.00
2023-02-11T06:28:31.726Z,5.00
2023-02-11T06:29:31.918Z,4.00
2023-02-11T06:30:32.174Z,5.00
2023-02-11T06:31:32.519Z,5.00
2023-02-11T06:32:43.899Z,10.00
2023-02-11T06:33:34.031Z,10.00
2023-02-11T06:34:33.309Z,12.00
2023-02-11T06:35:33.539Z,11.00
2023-02-11T06:36:33.817Z,12.00
2023-02-11T06:37:34.120Z,17.00
2023-02-11T06:38:34.386Z,23.00
2023-02-11T06:39:35.548Z,19.00
2023-02-11T06:40:35.007Z,25.00
2023-02-11T06:41:35.221Z,34.00
2023-02-11T06:42:35.556Z,33.00
2023-02-11T06:43:35.787Z,36.00
2023-02-11T06:44:36.095Z,40.00
2023-02-11T06:45:36.350Z,40.00
2023-02-11T06:46:36.754Z,49.00
2023-02-11T06:47:36.974Z,55.00
2023-02-11T06:48:37.248Z,60.00
2023-02-11T06:49:37.447Z,64.00
2023-02-11T06:50:37.773Z,69.00
2023-02-11T06:51:38.040Z,77.00
2023-02-11T06:52:38.281Z,81.00
2023-02-11T06:53:38.594Z,92.00
2023-02-11T06:54:38.832Z,94.00
2023-02-11T06:55:39.088Z,104.00
2023-02-11T06:56:39.424Z,109.00
2023-02-11T06:57:39.635Z,117.00
2023-02-11T06:58:39.920Z,131.00
2023-02-11T06:59:40.164Z,135.00
2023-02-11T07:00:40.522Z,143.00
2023-02-11T07:01:40.803Z,151.00
2023-02-11T07:02:41.267Z,156.00
2023-02-11T07:03:41.338Z,165.00
2023-02-11T07:04:41.648Z,175.00
2023-02-11T07:05:41.911Z,180.00
2023-02-11T07:06:42.229Z,190.00
2023-02-11T07:07:42.499Z,196.00
2023-02-11T07:08:42.781Z,202.00
2023-02-11T07:09:43.063Z,205.00
2023-02-11T07:10:43.344Z,214.00
2023-02-11T07:11:43.604Z,221.00
2023-02-11T07:12:43.919Z,230.00
2023-02-11T07:13:44.164Z,235.00
2023-02-11T07:14:44.445Z,247.00
2023-02-11T07:15:44.762Z,252.00
2023-02-11T07:16:45.052Z,259.00
2023-02-11T07:17:45.284Z,274.00
2023-02-11T07:18:45.574Z,279.00
2023-02-11T07:19:45.844Z,283.00
2023-02-11T07:20:46.127Z,296.00
2023-02-11T07:21:46.432Z,311.00
2023-02-11T07:22:46.743Z,320.00
2023-02-11T07:23:46.999Z,326.00
2023-02-11T07:24:47.318Z,339.00
2023-02-11T07:25:47.743Z,364.00
2023-02-11T07:26:47.957Z,352.00
2023-02-11T07:27:48.285Z,339.00
2023-02-11T07:28:48.528Z,355.00
2023-02-11T07:29:48.786Z,342.00
2023-02-11T07:30:49.120Z,343.00
2023-02-11T07:31:49.386Z,438.00
2023-02-11T07:32:49.744Z,376.00
2023-02-11T07:33:50.012Z,396.00
2023-02-11T07:34:50.309Z,454.00
2023-02-11T07:35:50.859Z,258.00
2023-02-11T07:36:50.975Z,317.00
2023-02-11T07:37:51.187Z,393.00
2023-02-11T07:38:51.459Z,668.00
2023-02-11T07:39:51.715Z,463.00
2023-02-11T07:40:52.042Z,468.00
2023-02-11T07:41:52.353Z,474.00
2023-02-11T07:42:52.638Z,494.00
2023-02-11T07:43:52.861Z,491.00
2023-02-11T07:44:53.190Z,302.00
2023-02-11T07:45:53.409Z,424.00
2023-02-11T07:46:53.796Z,588.00
2023-02-11T07:47:53.872Z,356.00
2023-02-11T07:48:54.146Z,912.00
2023-02-11T07:49:56.564Z,423.00
2023-02-11T07:50:54.725Z,452.00
2023-02-11T07:51:55.063Z,921.00
2023-02-11T07:52:55.363Z,400.00
2023-02-11T07:53:55.600Z,432.00
2023-02-11T07:54:55.907Z,593.00
2023-02-11T07:55:56.174Z,688.00
2023-02-11T07:56:56.447Z,556.00
2023-02-11T07:57:56.731Z,759.00
2023-02-11T07:58:57.078Z,680.00
2023-02-11T07:59:57.364Z,754.00
2023-02-11T08:00:57.689Z,735.00
2023-02-11T08:01:58.008Z,804.00
2023-02-11T08:02:58.271Z,914.00
2023-02-11T08:03:58.548Z,1134.00
2023-02-11T08:04:58.826Z,1243.00
2023-02-11T08:05:59.184Z,1793.00
2023-02-11T08:06:59.441Z,2368.00
2023-02-11T08:07:59.660Z,2359.00
2023-02-11T08:08:59.998Z,2139.00
2023-02-11T08:10:00.291Z,2286.00
2023-02-11T08:11:00.578Z,3027.00
2023-02-11T08:12:00.909Z,3285.00
2023-02-11T08:13:01.172Z,3234.00
2023-02-11T08:14:01.450Z,3106.00
2023-02-11T08:15:01.738Z,2911.00
2023-02-11T08:16:01.994Z,2985.00
2023-02-11T08:17:02.310Z,2735.00
2023-02-11T08:18:02.560Z,2754.00
2023-02-11T08:19:02.920Z,2610.00
2023-02-11T08:20:03.124Z,2977.00
2023-02-11T08:21:03.505Z,3728.00
2023-02-11T08:22:03.773Z,4265.00
2023-02-11T08:23:04.025Z,4973.00
2023-02-11T08:24:04.812Z,4783.00
2023-02-11T08:25:11.935Z,2900.00
2023-02-11T08:26:04.844Z,1691.00
2023-02-11T08:27:05.141Z,1440.00
2023-02-11T08:28:05.406Z,1404.00
2023-02-11T08:29:05.666Z,1366.00
2023-02-11T08:30:05.979Z,1440.00
2023-02-11T08:31:06.287Z,1443.00
2023-02-11T08:32:06.579Z,1417.00
2023-02-11T08:33:06.895Z,1465.00
2023-02-11T08:34:07.110Z,1485.00
2023-02-11T08:35:07.430Z,1595.00
2023-02-11T08:36:07.688Z,1891.00
2023-02-11T08:37:07.948Z,2183.00
2023-02-11T08:38:08.226Z,2292.00
2023-02-11T08:39:18.760Z,1733.00
2023-02-11T08:40:09.781Z,1488.00
2023-02-11T08:41:09.089Z,1395.00
2023-02-11T08:42:09.359Z,1404.00
2023-02-11T08:43:09.667Z,1429.00
2023-02-11T08:44:09.962Z,1426.00
2023-02-11T08:45:10.258Z,1304.00
2023-02-11T08:46:10.596Z,1370.00
2023-02-11T08:47:10.858Z,1360.00
2023-02-11T08:48:11.128Z,1474.00
2023-02-11T08:49:11.444Z,1458.00
2023-02-11T08:50:11.736Z,1524.00
2023-02-11T08:51:12.020Z,1545.00
2023-02-11T08:52:12.301Z,1448.00
2023-02-11T08:53:12.565Z,1531.00
2023-02-11T08:54:12.890Z,1577.00
2023-02-11T08:55:13.239Z,1590.00
2023-02-11T08:56:13.705Z,1704.00
2023-02-11T08:57:13.781Z,1622.00
2023-02-11T08:58:14.067Z,1577.00
2023-02-11T08:59:14.366Z,1573.00
2023-02-11T09:00:14.708Z,1585.00
2023-02-11T09:01:15.063Z,1770.00
2023-02-11T09:02:15.272Z,1757.00
2023-02-11T09:03:15.529Z,1762.00
2023-02-11T09:04:15.793Z,1724.00
2023-02-11T09:05:16.072Z,1625.00
2023-02-11T09:06:16.439Z,1568.00
2023-02-11T09:07:16.722Z,1601.00
2023-02-11T09:08:17.025Z,1714.00
2023-02-11T09:09:17.235Z,1731.00
2023-02-11T09:10:17.545Z,2015.00
2023-02-11T09:11:17.773Z,2166.00
2023-02-11T09:12:18.069Z,2036.00
2023-02-11T09:13:18.387Z,1940.00
2023-02-11T09:14:18.651Z,1966.00
2023-02-11T09:15:18.985Z,1812.00
2023-02-11T09:16:19.300Z,1645.00
2023-02-11T09:17:20.383Z,1564.00
2023-02-11T09:18:19.805Z,1470.00
2023-02-11T09:19:20.128Z,1829.00
2023-02-11T09:20:20.390Z,1991.00
2023-02-11T09:21:20.741Z,1899.00
2023-02-11T09:22:21.004Z,1701.00
2023-02-11T09:23:21.320Z,1814.00
2023-02-11T09:24:21.602Z,2076.00
2023-02-11T09:25:22.736Z,1903.00
2023-02-11T09:26:22.172Z,2032.00
2023-02-11T09:27:22.477Z,2194.00
2023-02-11T09:28:22.773Z,2200.00
2023-02-11T09:29:23.075Z,2341.00
2023-02-11T09:30:23.524Z,2284.00
2023-02-11T09:31:23.854Z,2583.00
2023-02-11T09:32:23.964Z,2588.00
2023-02-11T09:33:24.202Z,2190.00
2023-02-11T09:34:24.492Z,2330.00
2023-02-11T09:35:24.793Z,2449.00
2023-02-11T09:36:25.120Z,2644.00
2023-02-11T09:37:25.424Z,2707.00
2023-02-11T09:38:25.691Z,2613.00
2023-02-11T09:39:25.929Z,2849.00
2023-02-11T09:40:26.231Z,2963.00
2023-02-11T09:41:26.503Z,2751.00
2023-02-11T09:42:26.765Z,3275.00
2023-02-11T09:43:27.088Z,3144.00
2023-02-11T09:44:27.365Z,3215.00
2023-02-11T09:45:27.676Z,2949.00
2023-02-11T09:46:28.017Z,2896.00
2023-02-11T09:47:28.302Z,3435.00
2023-02-11T09:48:28.563Z,3373.00
2023-02-11T09:49:28.863Z,3308.00
2023-02-11T09:50:29.150Z,3164.00
2023-02-11T09:51:29.433Z,2793.00
2023-02-11T09:52:29.690Z,3384.00
2023-02-11T09:53:30.068Z,3582.00
2023-02-11T09:54:30.296Z,3675.00
2023-02-11T09:55:30.578Z,3677.00
2023-02-11T09:56:30.831Z,3720.00
2023-02-11T09:57:31.107Z,3157.00
2023-02-11T09:58:31.430Z,3510.00
2023-02-11T09:59:31.696Z,3542.00
2023-02-11T10:00:31.943Z,3229.00
2023-02-11T10:01:32.244Z,3058.00
2023-02-11T10:02:32.506Z,2891.00
2023-02-11T10:03:32.832Z,2874.00
2023-02-11T10:04:33.553Z,2907.00
2023-02-11T10:05:33.353Z,3232.00
2023-02-11T10:06:33.584Z,3048.00
2023-02-11T10:07:33.906Z,2874.00
2023-02-11T10:08:34.170Z,2817.00
2023-02-11T10:09:34.451Z,2782.00
2023-02-11T10:10:34.708Z,3094.00
2023-02-11T10:11:34.978Z,2998.00
2023-02-11T10:12:35.260Z,2908.00
2023-02-11T10:13:35.602Z,3001.00
2023-02-11T10:14:35.872Z,3043.00
2023-02-11T10:15:36.210Z,2983.00
2023-02-11T10:16:36.419Z,3041.00
2023-02-11T10:17:36.873Z,2799.00
2023-02-11T10:18:37.026Z,2814.00
2023-02-11T10:19:37.322Z,2787.00
2023-02-11T10:20:37.535Z,2844.00
2023-02-11T10:21:37.862Z,2853.00
2023-02-11T10:22:38.142Z,3008.00
2023-02-11T10:23:38.543Z,3463.00
2023-02-11T10:24:38.751Z,2942.00
2023-02-11T10:25:39.056Z,3310.00
2023-02-11T10:26:39.391Z,3763.00
2023-02-11T10:27:39.719Z,3131.00
2023-02-11T10:28:39.939Z,3250.00
2023-02-11T10:29:40.164Z,3276.00
2023-02-11T10:30:40.474Z,3836.00
2023-02-11T10:31:40.842Z,3253.00
2023-02-11T10:32:41.010Z,3240.00
2023-02-11T10:33:41.332Z,3264.00
2023-02-11T10:34:41.550Z,3256.00
2023-02-11T10:35:41.860Z,3278.00
2023-02-11T10:36:42.118Z,3224.00
2023-02-11T10:37:44.471Z,3186.00
2023-02-11T10:38:42.832Z,3113.00
2023-02-11T10:39:43.000Z,3095.00
2023-02-11T10:40:43.342Z,3100.00
2023-02-11T10:41:43.647Z,3206.00
2023-02-11T10:42:43.915Z,3138.00
2023-02-11T10:43:44.311Z,3164.00
2023-02-11T10:44:44.496Z,3251.00
2023-02-11T10:45:44.784Z,3220.00
2023-02-11T10:46:45.071Z,3125.00
2023-02-11T10:47:45.408Z,4267.00
2023-02-11T10:48:45.624Z,3890.00
2023-02-11T10:49:45.944Z,4603.00
2023-02-11T10:50:46.215Z,5113.00
2023-02-11T10:51:46.464Z,4082.00
2023-02-11T10:52:46.775Z,5568.00
2023-02-11T10:53:47.060Z,5098.00
2023-02-11T10:54:47.354Z,3622.00
2023-02-11T10:55:47.694Z,4373.00
2023-02-11T10:56:47.923Z,3937.00
2023-02-11T10:57:48.249Z,6339.00
2023-02-11T10:58:48.494Z,5154.00
2023-02-11T10:59:48.858Z,4381.00
2023-02-11T11:00:49.553Z,6302.00
2023-02-11T11:01:49.574Z,7635.00
2023-02-11T11:02:49.731Z,9595.00
2023-02-11T11:03:50.110Z,9681.00
2023-02-11T11:04:50.494Z,9180.00
2023-02-11T11:05:50.777Z,11468.00
2023-02-11T11:06:51.096Z,6831.00
2023-02-11T11:07:51.426Z,14964.00
2023-02-11T11:08:51.690Z,13144.00
2023-02-11T11:09:52.066Z,13575.00
2023-02-11T11:10:52.601Z,12015.00
2023-02-11T11:11:52.666Z,16679.00
2023-02-11T11:12:52.920Z,12900.00
2023-02-11T11:13:53.252Z,9716.00
2023-02-11T11:14:53.480Z,11012.00
2023-02-11T11:15:53.788Z,10034.00
2023-02-11T11:16:54.104Z,14529.00
2023-02-11T11:18:01.869Z,10206.00
2023-02-11T11:18:55.684Z,9845.00
2023-02-11T11:19:54.993Z,9540.00
2023-02-11T11:20:55.285Z,10983.00
2023-02-11T11:21:55.584Z,9653.00
2023-02-11T11:22:55.881Z,9443.00
2023-02-11T11:23:56.191Z,9478.00
2023-02-11T11:24:56.551Z,10196.00
2023-02-11T11:25:56.787Z,12678.00
2023-02-11T11:26:57.092Z,11840.00
2023-02-11T11:27:57.413Z,10296.00
2023-02-11T11:28:57.655Z,8210.00
2023-02-11T11:29:57.948Z,11393.00
2023-02-11T11:30:58.310Z,11969.00
2023-02-11T11:31:58.598Z,11313.00
2023-02-11T11:32:58.782Z,10421.00
2023-02-11T11:33:59.097Z,13009.00
2023-02-11T11:34:59.358Z,12290.00
2023-02-11T11:35:59.713Z,10016.00
2023-02-11T11:37:00.174Z,12496.00
2023-02-11T11:38:01.939Z,9634.00
2023-02-11T11:39:00.568Z,7838.00
2023-02-11T11:40:00.843Z,13774.00
2023-02-11T11:41:01.148Z,7672.00
2023-02-11T11:42:01.441Z,9885.00
2023-02-11T11:43:01.742Z,8710.00
2023-02-11T11:44:02.051Z,7468.00
2023-02-11T11:45:02.318Z,7778.00
2023-02-11T11:46:02.689Z,7378.00
2023-02-11T11:47:02.933Z,6045.00
2023-02-11T11:48:03.253Z,13264.00
2023-02-11T11:49:03.511Z,5812.00
2023-02-11T11:50:03.832Z,9125.00
2023-02-11T11:51:04.110Z,8334.00
2023-02-11T11:52:04.369Z,15191.00
2023-02-11T11:53:04.662Z,11107.00
2023-02-11T11:54:04.950Z,7859.00
2023-02-11T11:55:05.202Z,9464.00
2023-02-11T11:56:05.565Z,7993.00
2023-02-11T11:57:05.828Z,5633.00
2023-02-11T11:58:06.154Z,7544.00
2023-02-11T11:59:06.435Z,6784.00
2023-02-11T12:00:06.714Z,4207.00
2023-02-11T12:01:07.068Z,2878.00
2023-02-11T12:02:08.598Z,4403.00
2023-02-11T12:03:07.707Z,4531.00
2023-02-11T12:04:07.953Z,13879.00
2023-02-11T12:05:08.222Z,8043.00
2023-02-11T12:06:08.544Z,11551.00
2023-02-11T12:07:08.762Z,8730.00
2023-02-11T12:08:09.093Z,18887.00
2023-02-11T12:09:09.352Z,10138.00
2023-02-11T12:10:09.706Z,13179.00
2023-02-11T12:11:10.024Z,74313.00
2023-02-11T12:12:10.260Z,16506.00
2023-02-11T12:13:10.553Z,10616.00
2023-02-11T12:14:10.848Z,6618.00
2023-02-11T12:15:11.132Z,10146.00
2023-02-11T12:16:11.837Z,5688.00
2023-02-11T12:17:11.715Z,13974.00
2023-02-11T12:18:12.020Z,8662.00
2023-02-11T12:19:12.317Z,81646.00
2023-02-11T12:20:12.554Z,80054.00
2023-02-11T12:21:12.866Z,81760.00
2023-02-11T12:22:13.147Z,79638.00
2023-02-11T12:23:13.559Z,81897.00
2023-02-11T12:24:16.271Z,81125.00
2023-02-11T12:25:13.956Z,77816.00
2023-02-11T12:26:14.239Z,81448.00
2023-02-11T12:27:14.561Z,77742.00
2023-02-11T12:28:14.975Z,81714.00
2023-02-11T12:29:15.078Z,81621.00
2023-02-11T12:30:15.416Z,78309.00
2023-02-11T12:31:15.740Z,70492.00
2023-02-11T12:32:16.128Z,13303.00
2023-02-11T12:33:16.235Z,11479.00
2023-02-11T12:34:16.516Z,7583.00
2023-02-11T12:35:16.854Z,6291.00
2023-02-11T12:36:17.076Z,4276.00
2023-02-11T12:37:17.386Z,3583.00
2023-02-11T12:38:17.724Z,8489.00
2023-02-11T12:39:17.963Z,5363.00
2023-02-11T12:40:18.261Z,5327.00
2023-02-11T12:41:18.638Z,2870.00
2023-02-11T12:42:18.740Z,2485.00
2023-02-11T12:43:19.065Z,2100.00
2023-02-11T12:44:19.335Z,1837.00
2023-02-11T12:45:19.587Z,1607.00
2023-02-11T12:46:19.923Z,1505.00
2023-02-11T12:47:20.229Z,1515.00